sensor_id;sensor_type;location;lat;lon;timestamp;pressure;altitude;pressure_sealevel;temperature;humidity
5298;BME280;14738;42.668;23.250;2022-07-03T00:01:11;48426.03;;;-141.90;100.00
5298;BME280;14738;42.668;23.250;2022-07-03T00:03:37;48430.00;;;-141.90;100.00
5298;BME280;14738;42.668;23.250;2022-07-03T00:06:02;48412.13;;;-141.90;100.00
5298;BME280;14738;42.668;23.250;2022-07-03T00:08:28;48437.94;;;-141.90;100.00
5298;BME280;14738;42.668;23.250;2022-07-03T00:10:53;48420.09;;;-141.90;100.00
5298;BME280;14738;42.668;23.250;2022-07-03T00:13:19;48432.00;;;-141.90;100.00
5298;BME280;14738;42.668;23.250;2022-07-03T00:15:44;48443.91;;;-141.90;100.00
5298;BME280;14738;42.668;23.250;2022-07-03T00:18:10;48457.81;;;-141.90;100.00
5298;BME280;14738;42.668;23.250;2022-07-03T00:20:46;48441.91;;;-141.90;100.00
5298;BME280;14738;42.668;23.250;2022-07-03T00:23:18;48451.84;;;-141.90;100.00
5298;BME280;14738;42.668;23.250;2022-07-03T00:25:44;48437.94;;;-141.90;100.00
5298;BME280;14738;42.668;23.250;2022-07-03T00:28:10;48441.91;;;-141.90;100.00
5298;BME280;14738;42.668;23.250;2022-07-03T00:30:36;48426.03;;;-141.90;100.00
5298;BME280;14738;42.668;23.250;2022-07-03T00:33:02;48437.94;;;-141.90;100.00
5298;BME280;14738;42.668;23.250;2022-07-03T00:35:33;48433.97;;;-141.90;100.00
5298;BME280;14738;42.668;23.250;2022-07-03T00:37:59;48435.97;;;-141.90;100.00
5298;BME280;14738;42.668;23.250;2022-07-03T00:40:25;48422.06;;;-141.90;100.00
5298;BME280;14738;42.668;23.250;2022-07-03T00:42:51;48396.25;;;-141.90;100.00
5298;BME280;14738;42.668;23.250;2022-07-03T00:45:20;48418.09;;;-141.90;100.00
5298;BME280;14738;42.668;23.250;2022-07-03T00:47:46;48430.00;;;-141.90;100.00
5298;BME280;14738;42.668;23.250;2022-07-03T00:50:13;48461.78;;;-141.90;100.00
5298;BME280;14738;42.668;23.250;2022-07-03T00:52:46;48430.00;;;-141.90;100.00
5298;BME280;14738;42.668;23.250;2022-07-03T00:55:16;48432.00;;;-141.90;100.00
5298;BME280;14738;42.668;23.250;2022-07-03T00:57:46;48453.81;;;-141.90;100.00
5298;BME280;14738;42.668;23.250;2022-07-03T01:00:16;48463.75;;;-141.90;100.00
5298;BME280;14738;42.668;23.250;2022-07-03T01:02:57;48418.09;;;-141.90;100.00
5298;BME280;14738;42.668;23.250;2022-07-03T01:08:20;48435.97;;;-141.90;100.00
5298;BME280;14738;42.668;23.250;2022-07-03T01:10:54;48463.75;;;-141.90;100.00
5298;BME280;14738;42.668;23.250;2022-07-03T01:25:24;48437.94;;;-141.90;100.00
5298;BME280;14738;42.668;23.250;2022-07-03T01:30:41;48445.88;;;-141.90;100.00
5298;BME280;14738;42.668;23.250;2022-07-03T01:33:18;48426.03;;;-141.90;100.00
5298;BME280;14738;42.668;23.250;2022-07-03T01:38:30;48443.91;;;-141.90;100.00
5298;BME280;14738;42.668;23.250;2022-07-03T01:40:56;48445.88;;;-141.90;100.00
5298;BME280;14738;42.668;23.250;2022-07-03T01:43:28;48430.00;;;-141.90;100.00
5298;BME280;14738;42.668;23.250;2022-07-03T01:45:56;48406.19;;;-141.90;100.00
5298;BME280;14738;42.668;23.250;2022-07-03T01:48:23;48426.03;;;-141.90;100.00
5298;BME280;14738;42.668;23.250;2022-07-03T01:50:49;48447.88;;;-141.90;100.00
5298;BME280;14738;42.668;23.250;2022-07-03T01:53:16;48432.00;;;-141.90;100.00
5298;BME280;14738;42.668;23.250;2022-07-03T01:55:42;48408.16;;;-141.90;100.00
5298;BME280;14738;42.668;23.250;2022-07-03T01:58:09;48430.00;;;-141.90;100.00
5298;BME280;14738;42.668;23.250;2022-07-03T02:03:51;48435.97;;;-141.90;100.00
5298;BME280;14738;42.668;23.250;2022-07-03T02:09:03;48435.97;;;-141.90;100.00
5298;BME280;14738;42.668;23.250;2022-07-03T02:11:34;48432.00;;;-141.90;100.00
5298;BME280;14738;42.668;23.250;2022-07-03T02:14:16;48418.09;;;-141.90;100.00
5298;BME280;14738;42.668;23.250;2022-07-03T02:19:43;48457.81;;;-141.90;100.00
5298;BME280;14738;42.668;23.250;2022-07-03T02:22:11;48445.88;;;-141.90;100.00
5298;BME280;14738;42.668;23.250;2022-07-03T02:24:42;48424.06;;;-141.90;100.00
5298;BME280;14738;42.668;23.250;2022-07-03T02:27:23;48432.00;;;-141.90;100.00
5298;BME280;14738;42.668;23.250;2022-07-03T02:29:55;48422.06;;;-141.90;100.00
5298;BME280;14738;42.668;23.250;2022-07-03T02:32:25;48453.81;;;-141.90;100.00
5298;BME280;14738;42.668;23.250;2022-07-03T02:35:02;48437.94;;;-141.90;100.00
5298;BME280;14738;42.668;23.250;2022-07-03T02:37:33;48435.97;;;-141.90;100.00
5298;BME280;14738;42.668;23.250;2022-07-03T02:42:54;48420.09;;;-141.90;100.00
5298;BME280;14738;42.668;23.250;2022-07-03T02:45:22;48424.06;;;-141.90;100.00
5298;BME280;14738;42.668;23.250;2022-07-03T02:48:07;48447.88;;;-141.90;100.00
5298;BME280;14738;42.668;23.250;2022-07-03T02:50:36;48453.81;;;-141.90;100.00
5298;BME280;14738;42.668;23.250;2022-07-03T02:53:24;48441.91;;;-141.90;100.00
5298;BME280;14738;42.668;23.250;2022-07-03T02:55:50;48437.94;;;-141.90;100.00
5298;BME280;14738;42.668;23.250;2022-07-03T02:58:58;48445.88;;;-141.90;100.00
5298;BME280;14738;42.668;23.250;2022-07-03T03:04:16;48443.91;;;-141.90;100.00
5298;BME280;14738;42.668;23.250;2022-07-03T03:06:55;48414.13;;;-141.90;100.00
5298;BME280;14738;42.668;23.250;2022-07-03T03:09:29;48439.94;;;-141.90;100.00
5298;BME280;14738;42.668;23.250;2022-07-03T03:12:00;48430.00;;;-141.90;100.00
5298;BME280;14738;42.668;23.250;2022-07-03T03:14:34;48439.94;;;-141.90;100.00
5298;BME280;14738;42.668;23.250;2022-07-03T03:17:05;48445.88;;;-141.90;100.00
5298;BME280;14738;42.668;23.250;2022-07-03T03:19:36;48439.94;;;-141.90;100.00
5298;BME280;14738;42.668;23.250;2022-07-03T03:24:57;48457.81;;;-141.90;100.00
5298;BME280;14738;42.668;23.250;2022-07-03T03:27:23;48449.84;;;-141.90;100.00
5298;BME280;14738;42.668;23.250;2022-07-03T03:29:49;48449.84;;;-141.90;100.00
5298;BME280;14738;42.668;23.250;2022-07-03T03:32:16;48441.91;;;-141.90;100.00
5298;BME280;14738;42.668;23.250;2022-07-03T03:34:42;48441.91;;;-141.90;100.00
5298;BME280;14738;42.668;23.250;2022-07-03T03:37:08;48449.84;;;-141.90;100.00
5298;BME280;14738;42.668;23.250;2022-07-03T03:39:34;48461.78;;;-141.90;100.00
5298;BME280;14738;42.668;23.250;2022-07-03T03:41:59;48461.78;;;-141.90;100.00
5298;BME280;14738;42.668;23.250;2022-07-03T03:44:28;48432.00;;;-141.90;100.00
5298;BME280;14738;42.668;23.250;2022-07-03T03:46:54;48453.81;;;-141.90;100.00
5298;BME280;14738;42.668;23.250;2022-07-03T03:49:20;48477.66;;;-141.90;100.00
5298;BME280;14738;42.668;23.250;2022-07-03T03:51:46;48426.03;;;-141.90;100.00
5298;BME280;14738;42.668;23.250;2022-07-03T03:54:12;48455.81;;;-141.90;100.00
5298;BME280;14738;42.668;23.250;2022-07-03T03:56:37;48447.88;;;-141.90;100.00
5298;BME280;14738;42.668;23.250;2022-07-03T03:59:02;48473.69;;;-141.90;100.00
5298;BME280;14738;42.668;23.250;2022-07-03T04:01:28;48465.75;;;-141.90;100.00
5298;BME280;14738;42.668;23.250;2022-07-03T04:03:53;48475.66;;;-141.90;100.00
5298;BME280;14738;42.668;23.250;2022-07-03T04:06:19;48481.63;;;-141.90;100.00
5298;BME280;14738;42.668;23.250;2022-07-03T04:08:45;48529.28;;;-141.90;100.00
5298;BME280;14738;42.668;23.250;2022-07-03T04:11:10;48489.56;;;-141.90;100.00
5298;BME280;14738;42.668;23.250;2022-07-03T04:13:36;48479.63;;;-141.90;100.00
5298;BME280;14738;42.668;23.250;2022-07-03T04:16:01;48467.72;;;-141.90;100.00
5298;BME280;14738;42.668;23.250;2022-07-03T04:18:27;48499.50;;;-141.90;100.00
5298;BME280;14738;42.668;23.250;2022-07-03T04:20:53;48481.63;;;-141.90;100.00
5298;BME280;14738;42.668;23.250;2022-07-03T04:23:18;48483.59;;;-141.90;100.00
5298;BME280;14738;42.668;23.250;2022-07-03T04:25:44;48501.47;;;-141.90;100.00
5298;BME280;14738;42.668;23.250;2022-07-03T04:28:10;48521.34;;;-141.90;100.00
5298;BME280;14738;42.668;23.250;2022-07-03T04:30:36;48533.25;;;-141.90;100.00
5298;BME280;14738;42.668;23.250;2022-07-03T04:33:01;48525.31;;;-141.90;100.00
5298;BME280;14738;42.668;23.250;2022-07-03T04:35:27;48509.41;;;-141.90;100.00
5298;BME280;14738;42.668;23.250;2022-07-03T04:37:52;48501.47;;;-141.90;100.00
5298;BME280;14738;42.668;23.250;2022-07-03T04:40:18;48499.50;;;-141.90;100.00
5298;BME280;14738;42.668;23.250;2022-07-03T04:42:43;48497.50;;;-141.90;100.00
5298;BME280;14738;42.668;23.250;2022-07-03T04:45:09;48521.34;;;-141.90;100.00
5298;BME280;14738;42.668;23.250;2022-07-03T04:47:34;48529.28;;;-141.90;100.00
5298;BME280;14738;42.668;23.250;2022-07-03T04:50:00;48557.06;;;-141.90;100.00
5298;BME280;14738;42.668;23.250;2022-07-03T04:52:25;48543.16;;;-141.90;100.00
5298;BME280;14738;42.668;23.250;2022-07-03T04:54:51;48527.28;;;-141.90;100.00
5298;BME280;14738;42.668;23.250;2022-07-03T04:57:16;48531.25;;;-141.90;100.00
5298;BME280;14738;42.668;23.250;2022-07-03T04:59:42;48541.19;;;-141.90;100.00
5298;BME280;14738;42.668;23.250;2022-07-03T05:02:07;48557.06;;;-141.90;100.00
5298;BME280;14738;42.668;23.250;2022-07-03T05:04:33;48565.00;;;-141.90;100.00
5298;BME280;14738;42.668;23.250;2022-07-03T05:06:58;48553.09;;;-141.90;100.00
5298;BME280;14738;42.668;23.250;2022-07-03T05:09:24;48592.81;;;-141.90;100.00
5298;BME280;14738;42.668;23.250;2022-07-03T05:11:52;48592.81;;;-141.90;100.00
5298;BME280;14738;42.668;23.250;2022-07-03T05:14:17;48596.78;;;-141.90;100.00
5298;BME280;14738;42.668;23.250;2022-07-03T05:16:43;48604.72;;;-141.90;100.00
5298;BME280;14738;42.668;23.250;2022-07-03T05:19:08;48592.81;;;-141.90;100.00
5298;BME280;14738;42.668;23.250;2022-07-03T05:21:34;48586.84;;;-141.90;100.00
5298;BME280;14738;42.668;23.250;2022-07-03T05:23:59;48648.38;;;-141.90;100.00
5298;BME280;14738;42.668;23.250;2022-07-03T05:26:25;48644.41;;;-141.90;100.00
5298;BME280;14738;42.668;23.250;2022-07-03T05:28:50;48652.38;;;-141.90;100.00
5298;BME280;14738;42.668;23.250;2022-07-03T05:31:16;48632.50;;;-141.90;100.00
5298;BME280;14738;42.668;23.250;2022-07-03T05:33:41;48632.50;;;-141.90;100.00
5298;BME280;14738;42.668;23.250;2022-07-03T05:36:07;48648.38;;;-141.90;100.00
5298;BME280;14738;42.668;23.250;2022-07-03T05:38:32;48644.41;;;-141.90;100.00
5298;BME280;14738;42.668;23.250;2022-07-03T05:41:17;48670.22;;;-141.90;100.00
5298;BME280;14738;42.668;23.250;2022-07-03T05:43:42;48648.38;;;-141.90;100.00
5298;BME280;14738;42.668;23.250;2022-07-03T05:46:08;48731.78;;;-141.90;41.16
5298;BME280;14738;42.668;23.250;2022-07-03T05:48:33;48773.47;;;-141.90;38.38
5298;BME280;14738;42.668;23.250;2022-07-03T05:50:59;48848.91;;;-141.90;37.00
5298;BME280;14738;42.668;23.250;2022-07-03T05:53:25;48900.53;;;-141.90;36.89
5298;BME280;14738;42.668;23.250;2022-07-03T05:55:50;48954.16;;;-141.90;34.38
5298;BME280;14738;42.668;23.250;2022-07-03T05:58:16;48989.88;;;-141.90;33.05
5298;BME280;14738;42.668;23.250;2022-07-03T06:00:42;49061.38;;;-141.90;31.38
5298;BME280;14738;42.668;23.250;2022-07-03T06:03:07;49073.28;;;-141.90;30.37
5298;BME280;14738;42.668;23.250;2022-07-03T06:05:33;49152.69;;;-141.90;29.23
5298;BME280;14738;42.668;23.250;2022-07-03T06:07:59;49107.03;;;-141.90;29.66
5298;BME280;14738;42.668;23.250;2022-07-03T06:10:25;49047.47;;;-141.90;30.54
5298;BME280;14738;42.668;23.250;2022-07-03T06:12:51;49023.63;;;-141.90;30.82
5298;BME280;14738;42.668;23.250;2022-07-03T06:15:17;49184.47;;;-141.90;28.81
5298;BME280;14738;42.668;23.250;2022-07-03T06:17:42;49275.81;;;-141.90;27.77
5298;BME280;14738;42.668;23.250;2022-07-03T06:20:10;49355.25;;;-141.90;26.16
5298;BME280;14738;42.668;23.250;2022-07-03T06:22:36;49446.59;;;-141.90;25.84
5298;BME280;14738;42.668;23.250;2022-07-03T06:25:02;49355.25;;;-141.90;26.01
5298;BME280;14738;42.668;23.250;2022-07-03T06:27:28;49436.66;;;-141.90;24.57
5298;BME280;14738;42.668;23.250;2022-07-03T06:29:53;49470.41;;;-141.90;24.87
5298;BME280;14738;42.668;23.250;2022-07-03T06:32:19;49472.41;;;-141.90;24.59
5298;BME280;14738;42.668;23.250;2022-07-03T06:34:45;49553.81;;;-141.90;24.06
5298;BME280;14738;42.668;23.250;2022-07-03T06:37:11;49518.06;;;-141.90;24.13
5298;BME280;14738;42.668;23.250;2022-07-03T06:39:37;49522.03;;;-141.90;23.84
5298;BME280;14738;42.668;23.250;2022-07-03T06:42:03;49478.34;;;-141.90;25.68
5298;BME280;14738;42.668;23.250;2022-07-03T06:44:29;49490.28;;;-141.90;24.66
5298;BME280;14738;42.668;23.250;2022-07-03T06:46:54;49522.03;;;-141.90;23.80
5298;BME280;14738;42.668;23.250;2022-07-03T06:49:20;49557.78;;;-141.90;23.92
5298;BME280;14738;42.668;23.250;2022-07-03T06:51:45;49408.84;;;-141.90;24.83
5298;BME280;14738;42.668;23.250;2022-07-03T06:54:11;49390.97;;;-141.90;25.28
5298;BME280;14738;42.668;23.250;2022-07-03T06:56:36;49464.44;;;-141.90;25.01
5298;BME280;14738;42.668;23.250;2022-07-03T06:59:02;49486.28;;;-141.90;24.48
5298;BME280;14738;42.668;23.250;2022-07-03T07:01:27;49367.16;;;-141.90;24.91
5298;BME280;14738;42.668;23.250;2022-07-03T07:03:53;49371.13;;;-141.90;25.92
5298;BME280;14738;42.668;23.250;2022-07-03T07:06:18;49351.28;;;-141.90;26.51
5298;BME280;14738;42.668;23.250;2022-07-03T07:08:44;49158.66;;;-141.90;27.77
5298;BME280;14738;42.668;23.250;2022-07-03T07:11:10;49224.19;;;-141.90;29.16
5298;BME280;14738;42.668;23.250;2022-07-03T07:13:36;49176.53;;;-141.90;28.01
5298;BME280;14738;42.668;23.250;2022-07-03T07:16:01;49271.84;;;-141.90;27.52
5298;BME280;14738;42.668;23.250;2022-07-03T07:18:27;49224.19;;;-141.90;27.36
5298;BME280;14738;42.668;23.250;2022-07-03T07:20:52;49182.50;;;-141.90;27.62
5298;BME280;14738;42.668;23.250;2022-07-03T07:23:18;49194.41;;;-141.90;28.03
5298;BME280;14738;42.668;23.250;2022-07-03T07:25:43;49242.06;;;-141.90;27.99
5298;BME280;14738;42.668;23.250;2022-07-03T07:28:09;49251.97;;;-141.90;26.61
5298;BME280;14738;42.668;23.250;2022-07-03T07:30:34;49216.25;;;-141.90;27.59
5298;BME280;14738;42.668;23.250;2022-07-03T07:33:00;49132.84;;;-141.90;28.24
5298;BME280;14738;42.668;23.250;2022-07-03T07:35:25;49140.78;;;-141.90;29.14
5298;BME280;14738;42.668;23.250;2022-07-03T07:37:51;49051.44;;;-141.90;29.49
5298;BME280;14738;42.668;23.250;2022-07-03T07:40:16;49049.44;;;-141.90;31.61
5298;BME280;14738;42.668;23.250;2022-07-03T07:42:42;48989.88;;;-141.90;31.20
5298;BME280;14738;42.668;23.250;2022-07-03T07:45:09;48954.16;;;-141.90;32.38
5298;BME280;14738;42.668;23.250;2022-07-03T07:47:34;48946.19;;;-141.90;32.94
5298;BME280;14738;42.668;23.250;2022-07-03T07:50:00;48922.38;;;-141.90;32.66
5298;BME280;14738;42.668;23.250;2022-07-03T07:52:25;48950.19;;;-141.90;31.52
5298;BME280;14738;42.668;23.250;2022-07-03T07:54:50;48950.19;;;-141.90;33.05
5298;BME280;14738;42.668;23.250;2022-07-03T07:57:16;48934.28;;;-141.90;33.12
5298;BME280;14738;42.668;23.250;2022-07-03T07:59:41;48904.50;;;-141.90;33.95
5298;BME280;14738;42.668;23.250;2022-07-03T08:02:07;48910.47;;;-141.90;33.51
5298;BME280;14738;42.668;23.250;2022-07-03T08:04:51;48902.53;;;-141.90;33.70
5298;BME280;14738;42.668;23.250;2022-07-03T08:07:35;48932.31;;;-141.90;33.15
5298;BME280;14738;42.668;23.250;2022-07-03T08:10:00;48942.22;;;-141.90;33.10
5298;BME280;14738;42.668;23.250;2022-07-03T08:12:26;48914.44;;;-141.90;32.16
5298;BME280;14738;42.668;23.250;2022-07-03T08:14:51;48898.56;;;-141.90;33.03
5298;BME280;14738;42.668;23.250;2022-07-03T08:17:17;48860.81;;;-141.90;34.48
5298;BME280;14738;42.668;23.250;2022-07-03T08:19:42;48890.59;;;-141.90;32.93
5298;BME280;14738;42.668;23.250;2022-07-03T08:22:08;48872.75;;;-141.90;34.18
5298;BME280;14738;42.668;23.250;2022-07-03T08:24:34;48916.41;;;-141.90;33.40
5298;BME280;14738;42.668;23.250;2022-07-03T08:26:59;48902.53;;;-141.90;34.38
5298;BME280;14738;42.668;23.250;2022-07-03T08:29:25;48896.56;;;-141.90;32.80
5298;BME280;14738;42.668;23.250;2022-07-03T08:31:50;48878.69;;;-141.90;32.36
5298;BME280;14738;42.668;23.250;2022-07-03T08:34:16;48874.72;;;-141.90;32.98
5298;BME280;14738;42.668;23.250;2022-07-03T08:36:42;48854.88;;;-141.90;32.98
5298;BME280;14738;42.668;23.250;2022-07-03T08:39:07;48870.75;;;-141.90;33.70
5298;BME280;14738;42.668;23.250;2022-07-03T08:41:37;48914.44;;;-141.90;33.01
5298;BME280;14738;42.668;23.250;2022-07-03T08:44:05;48902.53;;;-141.90;31.68
5298;BME280;14738;42.668;23.250;2022-07-03T08:46:42;48890.59;;;-141.90;31.92
5298;BME280;14738;42.668;23.250;2022-07-03T08:49:09;48920.41;;;-141.90;32.13
5298;BME280;14738;42.668;23.250;2022-07-03T08:51:35;48872.75;;;-141.90;32.44
5298;BME280;14738;42.668;23.250;2022-07-03T08:54:04;48880.69;;;-141.90;33.52
5298;BME280;14738;42.668;23.250;2022-07-03T08:56:31;48944.22;;;-141.90;33.20
5298;BME280;14738;42.668;23.250;2022-07-03T08:58:57;48918.41;;;-141.90;32.83
5298;BME280;14738;42.668;23.250;2022-07-03T09:01:24;48944.22;;;-141.90;33.50
5298;BME280;14738;42.668;23.250;2022-07-03T09:03:51;48983.94;;;-141.90;31.16
5298;BME280;14738;42.668;23.250;2022-07-03T09:06:17;48910.47;;;-141.90;31.37
5298;BME280;14738;42.668;23.250;2022-07-03T09:08:43;48916.41;;;-141.90;32.59
5298;BME280;14738;42.668;23.250;2022-07-03T09:11:10;48896.56;;;-141.90;32.26
5298;BME280;14738;42.668;23.250;2022-07-03T09:13:35;48930.31;;;-141.90;30.98
5298;BME280;14738;42.668;23.250;2022-07-03T09:16:01;48914.44;;;-141.90;30.63
5298;BME280;14738;42.668;23.250;2022-07-03T09:18:43;48958.13;;;-141.90;30.82
5298;BME280;14738;42.668;23.250;2022-07-03T09:21:09;48930.31;;;-141.90;31.67
5298;BME280;14738;42.668;23.250;2022-07-03T09:23:36;48938.25;;;-141.90;30.69
5298;BME280;14738;42.668;23.250;2022-07-03T09:26:03;48960.09;;;-141.90;30.94
5298;BME280;14738;42.668;23.250;2022-07-03T09:28:55;48942.22;;;-141.90;29.90
5298;BME280;14738;42.668;23.250;2022-07-03T09:31:25;48936.28;;;-141.90;29.33
5298;BME280;14738;42.668;23.250;2022-07-03T09:33:58;48966.06;;;-141.90;29.93
5298;BME280;14738;42.668;23.250;2022-07-03T09:42:08;48981.94;;;-141.90;29.11
5298;BME280;14738;42.668;23.250;2022-07-03T09:44:38;48906.50;;;-141.90;28.33
5298;BME280;14738;42.668;23.250;2022-07-03T09:47:09;48888.63;;;-141.90;28.99
5298;BME280;14738;42.668;23.250;2022-07-03T09:52:43;48918.41;;;-141.90;29.44
5298;BME280;14738;42.668;23.250;2022-07-03T09:57:36;48932.31;;;-141.90;27.91
5298;BME280;14738;42.668;23.250;2022-07-03T10:00:16;48890.59;;;-141.90;28.75
5298;BME280;14738;42.668;23.250;2022-07-03T10:03:27;48898.56;;;-141.90;30.21
5298;BME280;14738;42.668;23.250;2022-07-03T10:05:46;48906.50;;;-141.90;28.78
5298;BME280;14738;42.668;23.250;2022-07-03T10:08:14;48922.38;;;-141.90;29.36
5298;BME280;14738;42.668;23.250;2022-07-03T10:10:48;48944.22;;;-141.90;28.32
5298;BME280;14738;42.668;23.250;2022-07-03T10:13:15;48930.31;;;-141.90;28.10
5298;BME280;14738;42.668;23.250;2022-07-03T10:15:41;48946.19;;;-141.90;27.57
5298;BME280;14738;42.668;23.250;2022-07-03T10:18:10;48942.22;;;-141.90;26.31
5298;BME280;14738;42.668;23.250;2022-07-03T10:23:04;48977.97;;;-141.90;24.42
5298;BME280;14738;42.668;23.250;2022-07-03T10:25:30;48930.31;;;-141.90;23.76
5298;BME280;14738;42.668;23.250;2022-07-03T10:27:56;48890.59;;;-141.90;24.96
5298;BME280;14738;42.668;23.250;2022-07-03T10:30:23;48892.59;;;-141.90;23.05
5298;BME280;14738;42.668;23.250;2022-07-03T10:32:54;48906.50;;;-141.90;23.99
5298;BME280;14738;42.668;23.250;2022-07-03T10:35:23;48930.31;;;-141.90;25.43
5298;BME280;14738;42.668;23.250;2022-07-03T10:40:53;48985.91;;;-141.90;25.68
5298;BME280;14738;42.668;23.250;2022-07-03T10:43:48;48906.50;;;-141.90;23.12
5298;BME280;14738;42.668;23.250;2022-07-03T10:46:34;48910.47;;;-141.90;23.55
5298;BME280;14738;42.668;23.250;2022-07-03T10:51:29;48962.09;;;-141.90;22.69
5298;BME280;14738;42.668;23.250;2022-07-03T10:54:18;48970.03;;;-141.90;21.71
5298;BME280;14738;42.668;23.250;2022-07-03T11:25:51;48954.16;;;-141.90;22.29
5298;BME280;14738;42.668;23.250;2022-07-03T11:36:32;48872.75;;;-141.90;24.45
5298;BME280;14738;42.668;23.250;2022-07-03T11:41:45;48918.41;;;-141.90;23.41
5298;BME280;14738;42.668;23.250;2022-07-03T11:44:14;48958.13;;;-141.90;24.20
5298;BME280;14738;42.668;23.250;2022-07-03T11:46:41;48866.78;;;-141.90;24.09
5298;BME280;14738;42.668;23.250;2022-07-03T11:49:12;48904.50;;;-141.90;24.75
5298;BME280;14738;42.668;23.250;2022-07-03T11:51:40;48914.44;;;-141.90;22.87
5298;BME280;14738;42.668;23.250;2022-07-03T11:54:06;48916.41;;;-141.90;24.31
5298;BME280;14738;42.668;23.250;2022-07-03T11:56:32;48898.56;;;-141.90;23.28
5298;BME280;14738;42.668;23.250;2022-07-03T11:58:59;48918.41;;;-141.90;23.70
5298;BME280;14738;42.668;23.250;2022-07-03T12:06:35;48898.56;;;-141.90;25.25
5298;BME280;14738;42.668;23.250;2022-07-03T12:09:02;48888.63;;;-141.90;24.06
5298;BME280;14738;42.668;23.250;2022-07-03T12:11:28;48938.25;;;-141.90;23.59
5298;BME280;14738;42.668;23.250;2022-07-03T12:13:53;48886.63;;;-141.90;24.25
5298;BME280;14738;42.668;23.250;2022-07-03T12:16:19;48910.47;;;-141.90;23.73
5298;BME280;14738;42.668;23.250;2022-07-03T12:18:55;48898.56;;;-141.90;24.95
5298;BME280;14738;42.668;23.250;2022-07-03T12:21:22;48902.53;;;-141.90;25.06
5298;BME280;14738;42.668;23.250;2022-07-03T12:23:55;48902.53;;;-141.90;25.43
5298;BME280;14738;42.668;23.250;2022-07-03T12:26:31;48888.63;;;-141.90;24.76
5298;BME280;14738;42.668;23.250;2022-07-03T12:28:58;48914.44;;;-141.90;25.32
5298;BME280;14738;42.668;23.250;2022-07-03T12:31:25;48940.25;;;-141.90;25.72
5298;BME280;14738;42.668;23.250;2022-07-03T12:33:52;48946.19;;;-141.90;25.10
5298;BME280;14738;42.668;23.250;2022-07-03T12:36:18;48910.47;;;-141.90;24.98
5298;BME280;14738;42.668;23.250;2022-07-03T12:38:54;48920.41;;;-141.90;24.72
5298;BME280;14738;42.668;23.250;2022-07-03T12:41:20;48934.28;;;-141.90;25.26
5298;BME280;14738;42.668;23.250;2022-07-03T12:43:47;48914.44;;;-141.90;26.08
5298;BME280;14738;42.668;23.250;2022-07-03T12:46:34;48914.44;;;-141.90;27.65
5298;BME280;14738;42.668;23.250;2022-07-03T12:49:11;48898.56;;;-141.90;26.59
5298;BME280;14738;42.668;23.250;2022-07-03T12:54:32;48890.59;;;-141.90;26.51
5298;BME280;14738;42.668;23.250;2022-07-03T12:57:06;48882.66;;;-141.90;27.13
5298;BME280;14738;42.668;23.250;2022-07-03T13:00:14;48944.22;;;-141.90;27.26
5298;BME280;14738;42.668;23.250;2022-07-03T13:02:43;48946.19;;;-141.90;27.40
5298;BME280;14738;42.668;23.250;2022-07-03T13:07:44;48880.69;;;-141.90;26.93
5298;BME280;14738;42.668;23.250;2022-07-03T13:10:11;48944.22;;;-141.90;26.94
5298;BME280;14738;42.668;23.250;2022-07-03T13:12:58;48920.41;;;-141.90;26.75
5298;BME280;14738;42.668;23.250;2022-07-03T13:15:25;48922.38;;;-141.90;26.06
5298;BME280;14738;42.668;23.250;2022-07-03T13:20:24;48886.63;;;-141.90;26.58
5298;BME280;14738;42.668;23.250;2022-07-03T13:22:51;48942.22;;;-141.90;26.37
5298;BME280;14738;42.668;23.250;2022-07-03T13:25:17;48910.47;;;-141.90;26.92
5298;BME280;14738;42.668;23.250;2022-07-03T13:27:42;48920.41;;;-141.90;26.39
5298;BME280;14738;42.668;23.250;2022-07-03T13:30:15;48920.41;;;-141.90;27.42
5298;BME280;14738;42.668;23.250;2022-07-03T13:32:41;48858.84;;;-141.90;27.42
5298;BME280;14738;42.668;23.250;2022-07-03T13:35:07;48926.34;;;-141.90;26.93
5298;BME280;14738;42.668;23.250;2022-07-03T13:37:32;48896.56;;;-141.90;26.74
5298;BME280;14738;42.668;23.250;2022-07-03T13:39:58;48870.75;;;-141.90;26.79
5298;BME280;14738;42.668;23.250;2022-07-03T13:42:23;48872.75;;;-141.90;26.80
5298;BME280;14738;42.668;23.250;2022-07-03T13:44:49;48882.66;;;-141.90;26.67
5298;BME280;14738;42.668;23.250;2022-07-03T13:47:17;48854.88;;;-141.90;26.19
5298;BME280;14738;42.668;23.250;2022-07-03T13:49:43;48856.84;;;-141.90;26.42
5298;BME280;14738;42.668;23.250;2022-07-03T13:52:11;48811.19;;;-141.90;26.80
5298;BME280;14738;42.668;23.250;2022-07-03T13:54:36;48876.72;;;-141.90;27.58
5298;BME280;14738;42.668;23.250;2022-07-03T13:57:02;48811.19;;;-141.90;28.28
5298;BME280;14738;42.668;23.250;2022-07-03T13:59:28;48795.31;;;-141.90;29.50
5298;BME280;14738;42.668;23.250;2022-07-03T14:01:56;48799.28;;;-141.90;30.04
5298;BME280;14738;42.668;23.250;2022-07-03T14:04:22;48811.19;;;-141.90;29.55
5298;BME280;14738;42.668;23.250;2022-07-03T14:06:47;48795.31;;;-141.90;30.12
5298;BME280;14738;42.668;23.250;2022-07-03T14:09:12;48840.97;;;-141.90;30.14
5298;BME280;14738;42.668;23.250;2022-07-03T14:11:38;48827.06;;;-141.90;30.04
5298;BME280;14738;42.668;23.250;2022-07-03T14:14:03;48813.19;;;-141.90;29.82
5298;BME280;14738;42.668;23.250;2022-07-03T14:16:29;48827.06;;;-141.90;29.96
5298;BME280;14738;42.668;23.250;2022-07-03T14:18:54;48803.25;;;-141.90;30.04
5298;BME280;14738;42.668;23.250;2022-07-03T14:21:19;48842.97;;;-141.90;29.83
5298;BME280;14738;42.668;23.250;2022-07-03T14:23:45;48803.25;;;-141.90;29.76
5298;BME280;14738;42.668;23.250;2022-07-03T14:26:10;48854.88;;;-141.90;30.63
5298;BME280;14738;42.668;23.250;2022-07-03T14:28:36;48809.22;;;-141.90;30.21
5298;BME280;14738;42.668;23.250;2022-07-03T14:31:20;48823.09;;;-141.90;30.73